createdAt,value
2022-09-14T00:00:10.553Z,99226.22
2022-09-14T00:00:58.498Z,99223.53
2022-09-14T00:01:46.789Z,99220.50
2022-09-14T00:02:29.728Z,99227.69
2022-09-14T00:03:10.334Z,99218.84
2022-09-14T00:03:55.532Z,99215.16
2022-09-14T00:04:36.569Z,99215.34
2022-09-14T00:05:16.510Z,99212.66
2022-09-14T00:05:57.227Z,99215.16
2022-09-14T00:06:36.763Z,99207.13
2022-09-14T00:07:16.175Z,99200.97
2022-09-14T00:07:54.619Z,99203.81
2022-09-14T00:08:34.050Z,99199.78
2022-09-14T00:09:16.112Z,99186.03
2022-09-14T00:09:59.749Z,99184.38
2022-09-14T00:10:40.649Z,99190.38
2022-09-14T00:11:20.531Z,99181.69
2022-09-14T00:12:00.042Z,99190.50
2022-09-14T00:12:39.162Z,99188.00
2022-09-14T00:13:19.088Z,99189.56
2022-09-14T00:13:57.682Z,99186.34
2022-09-14T00:14:37.050Z,99180.50
2022-09-14T00:15:16.195Z,99193.53
2022-09-14T00:15:55.446Z,99185.31
2022-09-14T00:16:32.456Z,99189.69
2022-09-14T00:17:10.841Z,99196.88
2022-09-14T00:17:49.328Z,99196.22
2022-09-14T00:18:27.573Z,99193.19
2022-09-14T00:19:07.341Z,99183.50
2022-09-14T00:19:45.263Z,99194.22
2022-09-14T00:20:22.725Z,99197.06
2022-09-14T00:21:05.711Z,99199.38
2022-09-14T00:21:44.663Z,99188.84
2022-09-14T00:22:22.922Z,99186.53
2022-09-14T00:23:01.077Z,99186.81
2022-09-14T00:23:38.771Z,99199.56
2022-09-14T00:24:17.144Z,99191.53
2022-09-14T00:24:55.414Z,99191.19
2022-09-14T00:25:33.520Z,99186.81
2022-09-14T00:26:13.786Z,99190.31
2022-09-14T00:26:51.366Z,99196.88
2022-09-14T00:27:30.245Z,99191.88
2022-09-14T00:28:08.021Z,99186.06
2022-09-14T00:28:45.093Z,99193.88
2022-09-14T00:29:23.260Z,99192.88
2022-09-14T00:30:01.216Z,99193.06
2022-09-14T00:30:43.657Z,99191.22
2022-09-14T00:31:21.516Z,99198.25
2022-09-14T00:31:59.634Z,99186.72
2022-09-14T00:32:37.495Z,99187.53
2022-09-14T00:33:15.718Z,99187.88
2022-09-14T00:33:55.347Z,99188.75
2022-09-14T00:34:32.471Z,99190.38
2022-09-14T00:35:09.646Z,99181.53
2022-09-14T00:35:47.516Z,99180.50
2022-09-14T00:36:24.779Z,99183.06
2022-09-14T00:37:03.213Z,99183.25
2022-09-14T00:37:41.486Z,99178.56
2022-09-14T00:38:19.041Z,99181.72
2022-09-14T00:38:55.946Z,99178.22
2022-09-14T00:39:34.846Z,99175.53
2022-09-14T00:40:11.694Z,99177.19
2022-09-14T00:40:48.279Z,99179.38
2022-09-14T00:41:26.167Z,99177.72
2022-09-14T00:42:04.383Z,99182.41
2022-09-14T00:42:42.013Z,99177.06
2022-09-14T00:43:20.300Z,99177.88
2022-09-14T00:43:57.400Z,99180.38
2022-09-14T00:44:32.320Z,99178.75
2022-09-14T00:45:09.391Z,99177.06
2022-09-14T00:45:46.022Z,99177.22
2022-09-14T00:46:22.698Z,99171.53
2022-09-14T00:46:59.811Z,99176.22
2022-09-14T00:47:36.526Z,99169.84
2022-09-14T00:48:12.926Z,99175.22
2022-09-14T00:48:50.216Z,99172.34
2022-09-14T00:49:31.191Z,99161.81
2022-09-14T00:50:08.584Z,99165.53
2022-09-14T00:50:46.572Z,99163.66
2022-09-14T00:51:24.878Z,99163.50
2022-09-14T00:52:05.623Z,99156.47
2022-09-14T00:52:44.155Z,99163.50
2022-09-14T00:53:22.030Z,99157.50
2022-09-14T00:54:00.567Z,99159.13
2022-09-14T00:54:37.552Z,99158.31
2022-09-14T00:55:22.079Z,99165.53
2022-09-14T00:55:59.979Z,99157.84
2022-09-14T00:56:37.922Z,99159.31
2022-09-14T00:57:15.175Z,99154.16
2022-09-14T00:57:52.014Z,99159.69
2022-09-14T00:58:30.627Z,99158.84
2022-09-14T00:59:09.927Z,99165.22
2022-09-14T00:59:47.487Z,99157.84
2022-09-14T01:00:25.185Z,99160.53
2022-09-14T01:01:04.995Z,99159.53
2022-09-14T01:01:44.021Z,99150.81
2022-09-14T01:02:20.790Z,99155.16
2022-09-14T01:02:58.844Z,99151.84
2022-09-14T01:03:36.851Z,99151.34
2022-09-14T01:04:14.578Z,99145.63
2022-09-14T01:04:53.878Z,99150.16
2022-09-14T01:05:36.933Z,99144.63
2022-09-14T01:06:20.880Z,99141.97
2022-09-14T01:06:59.161Z,99143.13
2022-09-14T01:07:41.797Z,99145.63
2022-09-14T01:08:28.444Z,99143.81
2022-09-14T01:09:18.113Z,99141.13
2022-09-14T01:09:59.437Z,99141.13
2022-09-14T01:11:07.686Z,99146.50
2022-09-14T01:11:53.427Z,99143.13
2022-09-14T01:12:41.074Z,99145.00
2022-09-14T01:13:35.394Z,99147.50
2022-09-14T01:14:10.913Z,99142.50
2022-09-14T01:15:06.875Z,99142.31
2022-09-14T01:15:56.000Z,99141.31
2022-09-14T01:16:50.870Z,99146.00
2022-09-14T01:17:34.601Z,99150.34
2022-09-14T01:18:10.037Z,99147.66
2022-09-14T01:19:06.483Z,99143.13
2022-09-14T01:20:02.498Z,99143.31
2022-09-14T01:20:40.433Z,99133.81
2022-09-14T01:21:18.120Z,99137.31
2022-09-14T01:21:56.095Z,99139.81
2022-09-14T01:22:37.795Z,99138.13
2022-09-14T01:23:31.866Z,99137.13
2022-09-14T01:24:09.679Z,99146.84
2022-09-14T01:24:47.966Z,99136.97
2022-09-14T01:25:34.814Z,99147.03
2022-09-14T01:26:09.969Z,99144.53
2022-09-14T01:26:47.830Z,99140.63
2022-09-14T01:27:31.951Z,99143.13
2022-09-14T01:28:08.821Z,99141.31
2022-09-14T01:29:00.337Z,99142.50
2022-09-14T01:29:38.082Z,99142.31
2022-09-14T01:30:18.803Z,99144.53
2022-09-14T01:30:56.851Z,99138.13
2022-09-14T01:31:38.133Z,99141.00
2022-09-14T01:32:24.266Z,99134.00
2022-09-14T01:33:04.610Z,99131.13
2022-09-14T01:33:42.523Z,99132.97
2022-09-14T01:34:24.055Z,99133.81
2022-09-14T01:35:08.045Z,99135.47
2022-09-14T01:35:50.304Z,99125.78
2022-09-14T01:36:29.079Z,99132.97
2022-09-14T01:37:09.939Z,99131.13
2022-09-14T01:38:00.397Z,99133.81
2022-09-14T01:38:38.046Z,99135.84
2022-09-14T01:39:15.510Z,99133.16
2022-09-14T01:39:53.191Z,99130.28
2022-09-14T01:40:30.827Z,99132.78
2022-09-14T01:41:07.507Z,99132.31
2022-09-14T01:41:44.013Z,99131.31
2022-09-14T01:42:20.751Z,99129.47
2022-09-14T01:42:58.742Z,99132.13
2022-09-14T01:43:36.933Z,99132.78
2022-09-14T01:44:14.722Z,99134.81
2022-09-14T01:44:54.840Z,99126.97
2022-09-14T01:45:32.305Z,99127.81
2022-09-14T01:46:28.215Z,99123.28
2022-09-14T01:47:08.053Z,99124.09
2022-09-14T01:47:45.810Z,99124.94
2022-09-14T01:48:23.463Z,99122.47
2022-09-14T01:49:06.823Z,99120.59
2022-09-14T01:49:45.617Z,99123.09
2022-09-14T01:50:43.082Z,99121.44
2022-09-14T01:51:22.399Z,99118.94
2022-09-14T01:52:07.467Z,99115.25
2022-09-14T01:52:58.106Z,99118.09
2022-09-14T01:53:35.210Z,99120.44
2022-09-14T01:54:18.134Z,99125.13
2022-09-14T01:54:54.543Z,99119.78
2022-09-14T01:55:31.182Z,99122.47
2022-09-14T01:56:13.204Z,99116.25
2022-09-14T01:56:56.719Z,99118.09
2022-09-14T01:57:40.250Z,99120.78
2022-09-14T01:58:20.821Z,99112.56
2022-09-14T01:59:00.707Z,99115.06
2022-09-14T01:59:40.656Z,99106.41
2022-09-14T02:00:18.289Z,99107.22
2022-09-14T02:00:54.703Z,99106.41
2022-09-14T02:01:34.949Z,99104.72
2022-09-14T02:02:13.053Z,99105.53
2022-09-14T02:02:53.316Z,99106.75
2022-09-14T02:03:30.196Z,99104.72
2022-09-14T02:04:08.180Z,99103.91
2022-09-14T02:04:47.570Z,99094.84
2022-09-14T02:05:36.961Z,99104.09
2022-09-14T02:06:15.001Z,99098.91
2022-09-14T02:06:51.736Z,99093.19
2022-09-14T02:07:29.722Z,99096.06
2022-09-14T02:08:06.449Z,99104.91
2022-09-14T02:08:43.282Z,99102.41
2022-09-14T02:09:20.077Z,99107.13
2022-09-14T02:09:58.487Z,99103.59
2022-09-14T02:10:36.996Z,99104.72
2022-09-14T02:11:15.767Z,99105.91
2022-09-14T02:11:53.700Z,99114.59
2022-09-14T02:12:32.292Z,99105.91
2022-09-14T02:13:10.233Z,99110.06
2022-09-14T02:13:48.667Z,99108.41
2022-09-14T02:14:26.133Z,99115.44
2022-09-14T02:15:06.121Z,99117.28
2022-09-14T02:15:44.509Z,99111.75
2022-09-14T02:16:22.265Z,99112.09
2022-09-14T02:17:00.755Z,99107.41
2022-09-14T02:17:38.595Z,99113.75
2022-09-14T02:18:17.328Z,99108.56
2022-09-14T02:18:55.170Z,99116.59
2022-09-14T02:19:32.103Z,99106.75
2022-09-14T02:20:09.359Z,99106.94
2022-09-14T02:20:48.002Z,99112.94
2022-09-14T02:21:24.998Z,99106.09
2022-09-14T02:22:04.165Z,99102.41
2022-09-14T02:22:42.266Z,99104.72
2022-09-14T02:23:20.165Z,99108.41
2022-09-14T02:23:57.682Z,99104.09
2022-09-14T02:24:35.916Z,99102.22
2022-09-14T02:25:14.045Z,99104.09
2022-09-14T02:25:52.258Z,99101.41
2022-09-14T02:26:30.810Z,99097.69
2022-09-14T02:27:08.110Z,99099.38
2022-09-14T02:27:46.068Z,99090.69
2022-09-14T02:28:24.464Z,99095.38
2022-09-14T02:29:02.881Z,99097.06
2022-09-14T02:29:41.870Z,99091.69
2022-09-14T02:30:18.736Z,99091.53
2022-09-14T02:31:02.425Z,99096.06
2022-09-14T02:31:43.499Z,99093.38
2022-09-14T02:32:32.572Z,99097.06
2022-09-14T02:33:11.347Z,99089.03
2022-09-14T02:33:50.546Z,99093.56
2022-09-14T02:34:47.534Z,99095.88
2022-09-14T02:35:43.084Z,99097.69
2022-09-14T02:36:21.169Z,99097.88
2022-09-14T02:37:04.725Z,99094.38
2022-09-14T02:37:46.995Z,99097.06
2022-09-14T02:38:22.247Z,99093.56
2022-09-14T02:38:59.736Z,99095.19
2022-09-14T02:39:54.315Z,99089.03
2022-09-14T02:40:40.577Z,99084.84
2022-09-14T02:41:28.856Z,99084.84
2022-09-14T02:42:06.878Z,99080.34
2022-09-14T02:42:44.852Z,99090.19
2022-09-14T02:43:28.228Z,99084.84
2022-09-14T02:44:17.946Z,99090.38
2022-09-14T02:44:58.220Z,99077.00
2022-09-14T02:45:48.910Z,99085.69
2022-09-14T02:46:35.793Z,99083.19
2022-09-14T02:47:16.582Z,99078.66
2022-09-14T02:47:57.657Z,99071.47
2022-09-14T02:48:39.496Z,99077.00
2022-09-14T02:49:17.465Z,99074.31
2022-09-14T02:50:01.001Z,99072.50
2022-09-14T02:50:51.560Z,99074.13
2022-09-14T02:51:44.002Z,99062.63
2022-09-14T02:52:46.228Z,99073.97
2022-09-14T02:53:45.852Z,99075.00
2022-09-14T02:54:42.108Z,99072.50
2022-09-14T02:55:33.399Z,99069.81
2022-09-14T02:56:25.315Z,99074.81
2022-09-14T02:57:17.426Z,99077.84
2022-09-14T02:58:07.265Z,99072.69
2022-09-14T02:59:05.413Z,99072.69
2022-09-14T02:59:57.264Z,99071.63
2022-09-14T03:00:59.331Z,99071.63
2022-09-14T03:01:51.870Z,99075.34
2022-09-14T03:02:44.243Z,99066.09
2022-09-14T03:03:37.069Z,99060.94
2022-09-14T03:05:32.951Z,99065.47
2022-09-14T03:06:25.677Z,99066.69
2022-09-14T03:07:18.262Z,99061.16
2022-09-14T03:08:11.394Z,99068.31
2022-09-14T03:09:07.873Z,99062.31
2022-09-14T03:10:00.369Z,99064.16
2022-09-14T03:10:53.065Z,99061.16
2022-09-14T03:11:46.931Z,99061.97
2022-09-14T03:12:40.009Z,99063.81
2022-09-14T03:13:33.471Z,99063.63
2022-09-14T03:14:30.815Z,99060.94
2022-09-14T03:15:21.139Z,99061.97
2022-09-14T03:16:21.030Z,99062.97
2022-09-14T03:17:11.123Z,99062.78
2022-09-14T03:18:01.337Z,99059.47
2022-09-14T03:18:55.990Z,99059.47
2022-09-14T03:19:47.185Z,99046.09
2022-09-14T03:20:36.684Z,99052.25
2022-09-14T03:21:26.829Z,99060.94
2022-09-14T03:22:15.930Z,99052.91
2022-09-14T03:23:04.428Z,99054.75
2022-09-14T03:23:58.915Z,99051.44
2022-09-14T03:24:48.773Z,99053.94
2022-09-14T03:25:39.990Z,99050.22
2022-09-14T03:26:29.184Z,99057.63
2022-09-14T03:27:18.720Z,99057.63
2022-09-14T03:28:08.720Z,99051.44
2022-09-14T03:29:05.668Z,99057.44
2022-09-14T03:29:55.330Z,99048.59
2022-09-14T03:30:47.763Z,99053.13
2022-09-14T03:31:37.827Z,99053.94
2022-09-14T03:32:27.594Z,99048.59
2022-09-14T03:33:15.719Z,99045.09
2022-09-14T03:34:08.486Z,99046.72
2022-09-14T03:34:58.932Z,99050.44
2022-09-14T03:35:49.531Z,99049.41
2022-09-14T03:36:38.349Z,99048.59
2022-09-14T03:37:26.621Z,99047.94
2022-09-14T03:38:16.569Z,99053.94
2022-09-14T03:39:10.596Z,99046.91
2022-09-14T03:39:59.591Z,99046.91
2022-09-14T03:40:50.281Z,99047.75
2022-09-14T03:41:40.309Z,99045.91
2022-09-14T03:42:28.714Z,99043.22
2022-09-14T03:43:17.292Z,99038.69
2022-09-14T03:44:07.827Z,99042.41
2022-09-14T03:45:01.892Z,99042.41
2022-09-14T03:45:56.896Z,99045.09
2022-09-14T03:46:46.582Z,99043.22
2022-09-14T03:47:36.990Z,99047.75
2022-09-14T03:48:27.019Z,99046.09
2022-09-14T03:49:17.271Z,99050.44
2022-09-14T03:50:12.230Z,99048.59
2022-09-14T03:51:03.745Z,99047.75
2022-09-14T03:51:54.377Z,99044.22
2022-09-14T03:52:47.038Z,99049.59
2022-09-14T03:53:37.105Z,99048.59
2022-09-14T03:54:28.051Z,99043.22
2022-09-14T03:55:18.665Z,99046.09
2022-09-14T03:56:14.548Z,99045.91
2022-09-14T03:57:05.025Z,99046.91
2022-09-14T03:58:35.506Z,99042.41
2022-09-14T03:59:28.838Z,99041.56
2022-09-14T04:00:15.133Z,99042.41
2022-09-14T04:01:06.368Z,99046.72
2022-09-14T04:01:55.345Z,99035.38
2022-09-14T04:02:45.338Z,99033.53
2022-09-14T04:03:35.355Z,99043.22
2022-09-14T04:04:25.365Z,99040.56
2022-09-14T04:05:19.789Z,99037.88
2022-09-14T04:06:13.790Z,99027.19
2022-09-14T04:07:05.065Z,99030.66
2022-09-14T04:07:54.708Z,99030.03
2022-09-14T04:08:46.087Z,99032.53
2022-09-14T04:09:35.599Z,99020.16
2022-09-14T04:10:27.221Z,99022.81
2022-09-14T04:11:35.859Z,99031.72
2022-09-14T04:12:27.526Z,99030.84
2022-09-14T04:13:18.908Z,99026.16
2022-09-14T04:14:11.968Z,99031.31
2022-09-14T04:15:09.159Z,99031.50
2022-09-14T04:16:07.108Z,99024.50
2022-09-14T04:16:58.931Z,99037.69
2022-09-14T04:17:49.708Z,99031.72
2022-09-14T04:18:40.668Z,99021.81
2022-09-14T04:19:32.260Z,99024.50
2022-09-14T04:21:27.020Z,99023.69
2022-09-14T04:22:20.474Z,99027.19
2022-09-14T04:23:14.192Z,99023.47
2022-09-14T04:24:15.872Z,99014.63
2022-09-14T04:25:08.029Z,99020.16
2022-09-14T04:26:06.356Z,99018.13
2022-09-14T04:27:00.435Z,99024.50
2022-09-14T04:28:16.750Z,99024.50
2022-09-14T04:29:03.811Z,99018.31
2022-09-14T04:29:57.333Z,99016.47
2022-09-14T04:30:57.335Z,99017.66
2022-09-14T04:31:47.353Z,99016.47
2022-09-14T04:32:37.673Z,99023.69
2022-09-14T04:33:27.176Z,99016.47
2022-09-14T04:34:16.436Z,99014.78
2022-09-14T04:35:08.182Z,99021.00
2022-09-14T04:36:06.091Z,99020.16
2022-09-14T04:36:57.143Z,99025.31
2022-09-14T04:37:50.440Z,99030.03
2022-09-14T04:38:40.729Z,99026.16
2022-09-14T04:39:33.210Z,99031.72
2022-09-14T04:40:27.071Z,99034.38
2022-09-14T04:41:24.760Z,99030.66
2022-09-14T04:42:17.535Z,99032.34
2022-09-14T04:43:10.850Z,99031.50
2022-09-14T04:44:04.451Z,99023.69
2022-09-14T04:44:57.236Z,99034.16
2022-09-14T04:45:50.657Z,99030.66
2022-09-14T04:46:49.686Z,99022.66
2022-09-14T04:47:40.112Z,99020.78
2022-09-14T04:48:30.364Z,99022.47
2022-09-14T04:49:21.140Z,99034.84
2022-09-14T04:50:13.941Z,99024.78
2022-09-14T04:51:06.750Z,99027.81
2022-09-14T04:52:05.989Z,99028.81
2022-09-14T04:52:58.410Z,99029.84
2022-09-14T04:53:49.287Z,99024.31
2022-09-14T04:54:39.845Z,99021.81
2022-09-14T04:55:35.752Z,99028.81
2022-09-14T04:56:30.902Z,99021.47
2022-09-14T04:57:22.252Z,99022.47
2022-09-14T04:58:17.716Z,99025.13
2022-09-14T04:59:08.124Z,99024.31
2022-09-14T04:59:59.852Z,99024.13
2022-09-14T05:00:54.573Z,99026.81
2022-09-14T05:01:54.816Z,99023.97
2022-09-14T05:02:47.113Z,99019.78
2022-09-14T05:03:39.823Z,99025.97
2022-09-14T05:04:32.610Z,99025.13
2022-09-14T05:05:29.132Z,99024.78
2022-09-14T05:06:20.144Z,99025.13
2022-09-14T05:07:12.370Z,99025.13
2022-09-14T05:08:05.624Z,99023.97
2022-09-14T05:08:58.462Z,99023.97
2022-09-14T05:09:56.083Z,99022.47
2022-09-14T05:10:49.161Z,99023.09
2022-09-14T05:11:39.251Z,99031.13
2022-09-14T05:12:29.649Z,99018.97
2022-09-14T05:13:21.412Z,99024.13
2022-09-14T05:14:12.125Z,99016.94
2022-09-14T05:16:01.713Z,99023.28
2022-09-14T05:16:51.925Z,99016.13
2022-09-14T05:17:44.493Z,99024.78
2022-09-14T05:18:36.541Z,99024.78
2022-09-14T05:19:29.738Z,99037.34
2022-09-14T05:20:26.336Z,99022.47
2022-09-14T05:21:18.503Z,99028.47
2022-09-14T05:22:11.280Z,99027.00
2022-09-14T05:23:04.884Z,99024.78
2022-09-14T05:23:57.578Z,99026.81
2022-09-14T05:24:47.571Z,99018.59
2022-09-14T05:25:44.758Z,99023.09
2022-09-14T05:26:36.481Z,99020.78
2022-09-14T05:27:25.460Z,99016.13
2022-09-14T05:28:14.589Z,99020.78
2022-09-14T05:29:04.452Z,99021.47
2022-09-14T05:29:59.220Z,99016.28
2022-09-14T05:30:57.190Z,99018.13
2022-09-14T05:31:51.045Z,99021.47
2022-09-14T05:32:46.036Z,99015.25
2022-09-14T05:33:39.534Z,99022.09
2022-09-14T05:34:36.714Z,99016.13
2022-09-14T05:35:30.513Z,99017.75
2022-09-14T05:36:21.462Z,99016.13
2022-09-14T05:37:15.324Z,99014.78
2022-09-14T05:38:08.054Z,99014.16
2022-09-14T05:39:01.847Z,99014.16
2022-09-14T05:39:58.986Z,99012.97
2022-09-14T05:40:49.393Z,99013.16
2022-09-14T05:41:38.792Z,99015.97
2022-09-14T05:42:27.675Z,99010.63
2022-09-14T05:43:16.341Z,99014.78
2022-09-14T05:44:07.920Z,99012.97
2022-09-14T05:45:07.973Z,99008.44
2022-09-14T05:45:59.698Z,99009.72
2022-09-14T05:46:52.026Z,99018.13
2022-09-14T05:47:45.417Z,99011.13
2022-09-14T05:48:37.259Z,99011.75
2022-09-14T05:49:31.168Z,99009.09
2022-09-14T05:51:24.537Z,99009.91
2022-09-14T05:52:15.638Z,99005.59
2022-09-14T05:53:13.101Z,99015.44
2022-09-14T05:54:14.386Z,99009.44
2022-09-14T05:55:08.171Z,99012.13
2022-09-14T05:56:00.278Z,99019.16
2022-09-14T05:56:50.887Z,99008.44
2022-09-14T05:57:41.023Z,99011.94
2022-09-14T05:58:31.557Z,99012.97
2022-09-14T05:59:21.447Z,99007.41
2022-09-14T06:00:10.143Z,99010.75
2022-09-14T06:01:01.055Z,99012.75
2022-09-14T06:01:51.467Z,99007.41
2022-09-14T06:02:40.453Z,99007.41
2022-09-14T06:03:30.034Z,99011.13
2022-09-14T06:04:21.442Z,99004.72
2022-09-14T06:05:15.067Z,99007.41
2022-09-14T06:06:14.743Z,99004.09
2022-09-14T06:07:17.833Z,99009.25
2022-09-14T06:08:07.483Z,99002.06
2022-09-14T06:08:58.753Z,99013.63
2022-09-14T06:09:53.537Z,99005.75
2022-09-14T06:10:46.097Z,99008.63
2022-09-14T06:11:37.202Z,99011.28
2022-09-14T06:12:29.464Z,99009.25
2022-09-14T06:13:20.963Z,99010.09
2022-09-14T06:14:13.970Z,99015.44
2022-09-14T06:16:08.317Z,99011.75
2022-09-14T06:16:59.034Z,99009.91
2022-09-14T06:17:49.265Z,99012.75
2022-09-14T06:18:38.984Z,99014.63
2022-09-14T06:19:30.061Z,99008.44
2022-09-14T06:21:27.888Z,99019.16
2022-09-14T06:22:21.340Z,99018.13
2022-09-14T06:23:13.855Z,99017.28
2022-09-14T06:24:06.202Z,99015.66
2022-09-14T06:24:59.189Z,99012.75
2022-09-14T06:25:56.140Z,99012.13
2022-09-14T06:26:48.158Z,99013.78
2022-09-14T06:27:41.365Z,99011.94
2022-09-14T06:28:32.631Z,99012.97
2022-09-14T06:29:23.663Z,99016.47
2022-09-14T06:30:14.366Z,99011.94
2022-09-14T06:32:08.898Z,99014.44
2022-09-14T06:33:00.159Z,99014.44
2022-09-14T06:33:53.795Z,99009.09
2022-09-14T06:34:50.808Z,99016.28
2022-09-14T06:35:46.391Z,99012.59
2022-09-14T06:36:37.300Z,99016.13
2022-09-14T06:37:29.332Z,99017.13
2022-09-14T06:39:19.773Z,99009.09
2022-09-14T06:40:16.151Z,99014.44
2022-09-14T06:42:20.567Z,99011.13
2022-09-14T06:43:16.006Z,99010.09
2022-09-14T06:44:09.926Z,99014.44
2022-09-14T06:46:02.439Z,99016.13
2022-09-14T06:46:56.125Z,99015.25
2022-09-14T06:47:49.282Z,99016.28
2022-09-14T06:48:43.511Z,99012.97
2022-09-14T06:52:55.334Z,99011.75
2022-09-14T06:54:04.664Z,99018.13
2022-09-14T06:55:03.201Z,99022.81
2022-09-14T06:56:11.407Z,99021.81
2022-09-14T06:57:09.430Z,99017.28
2022-09-14T06:58:38.961Z,99013.78
2022-09-14T06:59:40.279Z,99015.44
2022-09-14T07:00:40.068Z,99022.66
2022-09-14T07:02:37.776Z,99012.97
2022-09-14T07:03:32.847Z,99016.28
2022-09-14T07:04:25.836Z,99018.97
2022-09-14T07:05:20.002Z,99018.13
2022-09-14T07:06:20.620Z,99023.47
2022-09-14T07:07:12.818Z,99024.31
2022-09-14T07:08:11.903Z,99023.47
2022-09-14T07:09:03.584Z,99028.63
2022-09-14T07:09:56.057Z,99030.66
2022-09-14T07:10:49.107Z,99027.81
2022-09-14T07:12:45.903Z,99032.53
2022-09-14T07:13:38.410Z,99027.19
2022-09-14T07:14:32.467Z,99026.16
2022-09-14T07:15:21.602Z,99032.53
2022-09-14T07:16:17.027Z,99031.50
2022-09-14T07:17:08.061Z,99023.47
2022-09-14T07:18:02.176Z,99031.03
2022-09-14T07:18:55.557Z,99022.66
2022-09-14T07:19:48.974Z,99037.88
2022-09-14T07:20:46.038Z,99029.84
2022-09-14T07:21:36.956Z,99033.34
2022-09-14T07:22:29.998Z,99035.19
2022-09-14T07:23:20.281Z,99035.19
2022-09-14T07:24:13.932Z,99032.53
2022-09-14T07:25:05.401Z,99036.19
2022-09-14T07:26:04.411Z,99030.84
2022-09-14T07:26:56.154Z,99036.19
2022-09-14T07:27:47.684Z,99037.88
2022-09-14T07:28:39.054Z,99038.88
2022-09-14T07:29:27.338Z,99037.25
2022-09-14T07:30:15.335Z,99034.56
2022-09-14T07:31:12.059Z,99037.88
2022-09-14T07:32:04.299Z,99041.56
2022-09-14T07:32:54.629Z,99043.22
2022-09-14T07:33:45.584Z,99031.72
2022-09-14T07:34:33.809Z,99038.25
2022-09-14T07:35:22.990Z,99039.91
2022-09-14T07:36:23.383Z,99042.41
2022-09-14T07:37:17.907Z,99037.06
2022-09-14T07:38:10.080Z,99034.16
2022-09-14T07:39:00.891Z,99038.06
2022-09-14T07:39:52.267Z,99042.41
2022-09-14T07:40:48.645Z,99033.72
2022-09-14T07:41:39.659Z,99036.19
2022-09-14T07:42:30.604Z,99042.41
2022-09-14T07:43:23.839Z,99035.19
2022-09-14T07:44:16.864Z,99040.72
2022-09-14T07:45:10.705Z,99039.91
2022-09-14T07:46:09.999Z,99036.53
2022-09-14T07:47:00.276Z,99036.53
2022-09-14T07:47:51.975Z,99041.88
2022-09-14T07:48:44.712Z,99042.72
2022-09-14T07:49:36.604Z,99043.59
2022-09-14T07:50:29.309Z,99038.88
2022-09-14T07:51:26.479Z,99041.56
2022-09-14T07:52:18.812Z,99044.22
2022-09-14T07:53:12.330Z,99045.28
2022-09-14T07:54:05.629Z,99039.91
2022-09-14T07:54:57.905Z,99039.22
2022-09-14T07:55:54.427Z,99043.22
2022-09-14T07:56:51.969Z,99043.22
2022-09-14T07:57:55.687Z,99045.28
2022-09-14T07:58:46.106Z,99039.91
2022-09-14T07:59:37.187Z,99039.06
2022-09-14T08:00:26.338Z,99042.59
2022-09-14T08:01:17.275Z,99041.56
2022-09-14T08:02:13.691Z,99042.59
2022-09-14T08:03:08.421Z,99044.22
2022-09-14T08:04:05.181Z,99037.25
2022-09-14T08:04:57.752Z,99040.72
2022-09-14T08:05:50.044Z,99040.91
2022-09-14T08:06:43.573Z,99030.84
2022-09-14T08:07:35.809Z,99037.25
2022-09-14T08:08:28.273Z,99035.56
2022-09-14T08:09:22.567Z,99034.56
2022-09-14T08:10:14.892Z,99035.56
2022-09-14T08:11:08.235Z,99028.34
2022-09-14T08:12:06.881Z,99037.38
2022-09-14T08:12:59.116Z,99032.88
2022-09-14T08:13:51.641Z,99029.22
2022-09-14T08:14:43.318Z,99032.88
2022-09-14T08:15:37.285Z,99032.88
2022-09-14T08:16:32.911Z,99030.22
2022-09-14T08:17:25.494Z,99028.50
2022-09-14T08:18:17.150Z,99020.31
2022-09-14T08:19:08.673Z,99017.47
2022-09-14T08:20:00.309Z,99015.66
2022-09-14T08:20:50.392Z,99017.66
2022-09-14T08:21:49.906Z,99020.47
2022-09-14T08:22:42.850Z,99019.31
2022-09-14T08:23:39.886Z,99016.81
2022-09-14T08:24:33.257Z,99022.19
2022-09-14T08:25:28.075Z,99019.50
2022-09-14T08:26:20.427Z,99018.50
2022-09-14T08:27:17.280Z,99012.28
2022-09-14T08:28:08.031Z,99013.97
2022-09-14T08:29:01.183Z,99012.28
2022-09-14T08:29:52.825Z,99011.47
2022-09-14T08:30:43.661Z,99016.97
2022-09-14T08:31:32.965Z,99015.13
2022-09-14T08:32:28.663Z,99011.47
2022-09-14T08:33:19.335Z,99017.78
2022-09-14T08:34:10.509Z,99013.16
2022-09-14T08:35:08.652Z,99019.31
2022-09-14T08:35:58.499Z,99013.16
2022-09-14T08:36:47.938Z,99008.81
2022-09-14T08:37:36.584Z,99007.09
2022-09-14T08:38:26.324Z,99011.47
2022-09-14T08:39:15.469Z,99005.28
2022-09-14T08:40:02.624Z,99003.28
2022-09-14T08:40:58.129Z,99004.28
2022-09-14T08:41:48.380Z,99004.41
2022-09-14T08:42:37.948Z,99007.81
2022-09-14T08:43:31.935Z,99005.13
2022-09-14T08:44:24.429Z,99009.78
2022-09-14T08:45:12.650Z,99009.63
2022-09-14T08:46:03.316Z,99007.09
2022-09-14T08:46:54.312Z,99004.41
2022-09-14T08:47:47.957Z,99008.81
2022-09-14T08:48:44.240Z,99007.09
2022-09-14T08:49:40.040Z,99007.09
2022-09-14T08:50:34.702Z,99004.41
2022-09-14T08:51:28.098Z,99006.13
2022-09-14T08:52:23.035Z,99013.97
2022-09-14T08:53:13.003Z,99002.44
2022-09-14T08:54:08.784Z,99012.44
2022-09-14T08:55:06.387Z,99007.09
2022-09-14T08:56:09.598Z,99008.13
2022-09-14T08:56:57.885Z,99003.28
2022-09-14T08:57:51.224Z,99004.41
2022-09-14T08:58:54.278Z,99012.44
2022-09-14T08:59:51.915Z,99009.78
2022-09-14T09:00:46.552Z,99008.47
2022-09-14T09:01:28.470Z,99009.25
2022-09-14T09:02:29.293Z,99014.72
2022-09-14T09:03:23.939Z,99004.94
2022-09-14T09:04:29.989Z,99011.81
2022-09-14T09:05:35.059Z,99013.47
2022-09-14T09:06:39.200Z,99004.41
2022-09-14T09:07:33.269Z,99011.28
2022-09-14T09:08:28.113Z,99010.28
2022-09-14T09:09:19.890Z,99009.91
2022-09-14T09:10:16.355Z,99009.91
2022-09-14T09:11:12.655Z,99009.09
2022-09-14T09:13:08.012Z,99012.59
2022-09-14T09:13:54.478Z,99016.13
2022-09-14T09:14:48.940Z,99017.13
2022-09-14T09:15:39.621Z,99012.41
2022-09-14T09:16:22.987Z,99012.41
2022-09-14T09:17:31.863Z,99014.44
2022-09-14T09:18:27.462Z,99014.91
2022-09-14T09:19:36.546Z,99012.91
2022-09-14T09:20:34.032Z,99015.41
2022-09-14T09:21:23.075Z,99012.50
2022-09-14T09:22:22.590Z,99003.84
2022-09-14T09:24:20.866Z,99004.88
2022-09-14T09:25:13.688Z,98999.69
2022-09-14T09:25:57.114Z,99004.88
2022-09-14T09:26:47.593Z,99005.03
2022-09-14T09:27:44.658Z,99001.34
2022-09-14T09:28:37.517Z,99003.66
2022-09-14T09:29:32.593Z,99002.19
2022-09-14T09:30:26.133Z,99002.66
2022-09-14T09:31:23.683Z,99003.47
2022-09-14T09:33:30.006Z,98995.09
2022-09-14T09:34:21.190Z,99003.13
2022-09-14T09:35:17.682Z,99011.97
2022-09-14T09:36:08.648Z,99001.09
2022-09-14T09:38:01.922Z,98996.22
2022-09-14T09:38:56.051Z,98993.72
2022-09-14T09:39:51.145Z,99005.25
2022-09-14T09:40:48.241Z,98997.88
2022-09-14T09:43:10.376Z,99003.94
2022-09-14T09:44:01.998Z,98994.91
2022-09-14T09:45:06.707Z,99000.25
2022-09-14T09:46:01.496Z,98999.91
2022-09-14T09:48:34.360Z,98997.56
2022-09-14T09:49:28.944Z,99001.34
2022-09-14T09:50:23.556Z,98990.28
2022-09-14T09:51:24.680Z,98999.81
2022-09-14T09:52:21.776Z,98987.88
2022-09-14T09:53:14.044Z,98992.31
2022-09-14T09:54:22.826Z,98989.56
2022-09-14T09:55:16.210Z,98995.72
2022-09-14T09:56:10.449Z,98985.97